CYKF

Waterloo Airport

Kitchener, Ontario, Canada
METAR CYKF 160638Z AUTO 10002KT 2 1/4SM BR CLR 19/18 A2996 RMK SLP143 DENSITY ALT 1600FT
Observed Flight Rules
Jul-16 @ 06:38 UTC (5 minutes ago) Instrument Flight Rules
Wind Visibility Clouds Conditions
100° at 2 knots 2 1/4 miles
  • Clear skies
  • Mist
Temperatures Readings
Current 19°C / 66°F
Dewpoint 18°C / 64°F
Humidity 94%
Altimeter 29.96" Hg
Pressure 1014.3 hPa
Elevation 317
METAR CYKF 160638Z AUTO 10002KT 2 1/4SM BR CLR 19/18 A2996 RMK SLP143 DENSITY ALT 1600FT
Observed Flight Rules
Jul-16 @ 06:38 UTC
(5 minutes ago)
IFR
Wind Visibility
100° at 2 knots 2 1/4 miles
Clouds
  • Clear skies
Conditions
  • Mist
Temperature Dewpoint
19°C / 66°F 18°C / 64°F
Humidity Altimeter Pressure
94% 29.96" Hg 1014.3 hPa